sensor_id;sensor_type;location;lat;lon;timestamp;P1;durP1;ratioP1;P2;durP2;ratioP2
59442;SDS011;45247;47.466;19.004;2023-07-13T05:09:42;8.43;;;3.42;;
59442;SDS011;45247;47.466;19.004;2023-07-13T05:12:10;12.13;;;3.58;;
59442;SDS011;45247;47.466;19.004;2023-07-13T05:14:39;12.70;;;4.68;;
59442;SDS011;45247;47.466;19.004;2023-07-13T05:17:07;10.98;;;4.45;;
59442;SDS011;45247;47.466;19.004;2023-07-13T05:19:36;13.43;;;5.38;;
59442;SDS011;45247;47.466;19.004;2023-07-13T05:22:04;10.30;;;5.47;;
59442;SDS011;45247;47.466;19.004;2023-07-13T05:24:34;7.85;;;4.30;;
59442;SDS011;45247;47.466;19.004;2023-07-13T05:27:02;9.90;;;4.50;;
59442;SDS011;45247;47.466;19.004;2023-07-13T05:29:31;9.27;;;4.57;;
59442;SDS011;45247;47.466;19.004;2023-07-13T05:31:59;9.57;;;5.43;;
59442;SDS011;45247;47.466;19.004;2023-07-13T05:34:28;9.50;;;4.40;;
59442;SDS011;45247;47.466;19.004;2023-07-13T05:36:56;11.60;;;5.05;;
59442;SDS011;45247;47.466;19.004;2023-07-13T05:39:24;8.73;;;4.13;;
59442;SDS011;45247;47.466;19.004;2023-07-13T05:41:55;7.38;;;3.90;;
59442;SDS011;45247;47.466;19.004;2023-07-13T05:44:24;5.10;;;3.35;;
59442;SDS011;45247;47.466;19.004;2023-07-13T05:46:52;7.35;;;3.45;;
59442;SDS011;45247;47.466;19.004;2023-07-13T05:49:21;6.60;;;2.95;;
59442;SDS011;45247;47.466;19.004;2023-07-13T05:51:50;5.63;;;3.20;;
59442;SDS011;45247;47.466;19.004;2023-07-13T05:54:19;7.93;;;3.28;;
59442;SDS011;45247;47.466;19.004;2023-07-13T05:56:47;5.10;;;2.83;;
59442;SDS011;45247;47.466;19.004;2023-07-13T05:59:17;4.35;;;2.95;;
59442;SDS011;45247;47.466;19.004;2023-07-13T06:01:45;5.65;;;3.22;;
59442;SDS011;45247;47.466;19.004;2023-07-13T06:04:14;7.30;;;3.65;;
59442;SDS011;45247;47.466;19.004;2023-07-13T06:06:43;7.93;;;3.25;;
59442;SDS011;45247;47.466;19.004;2023-07-13T06:09:12;4.80;;;2.50;;
59442;SDS011;45247;47.466;19.004;2023-07-13T06:11:40;6.45;;;2.65;;
59442;SDS011;45247;47.466;19.004;2023-07-13T06:14:08;5.03;;;2.30;;
59442;SDS011;45247;47.466;19.004;2023-07-13T06:16:39;5.53;;;2.15;;
59442;SDS011;45247;47.466;19.004;2023-07-13T06:19:08;3.55;;;1.98;;
59442;SDS011;45247;47.466;19.004;2023-07-13T06:21:36;3.40;;;2.08;;
59442;SDS011;45247;47.466;19.004;2023-07-13T06:24:05;4.28;;;2.50;;
59442;SDS011;45247;47.466;19.004;2023-07-13T06:26:33;7.55;;;2.80;;
59442;SDS011;45247;47.466;19.004;2023-07-13T06:29:01;6.15;;;2.42;;
59442;SDS011;45247;47.466;19.004;2023-07-13T06:31:30;4.07;;;2.65;;
59442;SDS011;45247;47.466;19.004;2023-07-13T06:34:02;3.05;;;2.00;;
59442;SDS011;45247;47.466;19.004;2023-07-13T06:36:30;5.03;;;2.47;;
59442;SDS011;45247;47.466;19.004;2023-07-13T06:38:59;4.95;;;2.47;;
59442;SDS011;45247;47.466;19.004;2023-07-13T06:41:27;4.20;;;2.30;;
59442;SDS011;45247;47.466;19.004;2023-07-13T06:43:57;3.70;;;2.08;;
59442;SDS011;45247;47.466;19.004;2023-07-13T06:46:25;5.28;;;2.03;;
59442;SDS011;45247;47.466;19.004;2023-07-13T06:48:54;7.50;;;2.67;;
59442;SDS011;45247;47.466;19.004;2023-07-13T06:51:23;8.75;;;2.20;;
59442;SDS011;45247;47.466;19.004;2023-07-13T06:53:52;3.55;;;2.33;;
59442;SDS011;45247;47.466;19.004;2023-07-13T06:56:21;4.65;;;2.47;;
59442;SDS011;45247;47.466;19.004;2023-07-13T06:58:49;2.30;;;1.75;;
59442;SDS011;45247;47.466;19.004;2023-07-13T07:01:18;6.57;;;2.20;;
59442;SDS011;45247;47.466;19.004;2023-07-13T07:03:46;4.25;;;1.95;;
59442;SDS011;45247;47.466;19.004;2023-07-13T07:06:16;3.22;;;2.00;;
59442;SDS011;45247;47.466;19.004;2023-07-13T07:08:47;5.47;;;1.90;;
59442;SDS011;45247;47.466;19.004;2023-07-13T07:11:18;3.05;;;1.83;;
59442;SDS011;45247;47.466;19.004;2023-07-13T07:13:48;5.38;;;2.30;;
59442;SDS011;45247;47.466;19.004;2023-07-13T07:16:17;5.32;;;2.13;;
59442;SDS011;45247;47.466;19.004;2023-07-13T07:18:46;5.72;;;2.42;;
59442;SDS011;45247;47.466;19.004;2023-07-13T07:21:16;4.32;;;1.88;;
59442;SDS011;45247;47.466;19.004;2023-07-13T07:23:45;10.13;;;2.72;;
59442;SDS011;45247;47.466;19.004;2023-07-13T07:26:15;7.10;;;2.85;;
59442;SDS011;45247;47.466;19.004;2023-07-13T07:28:43;6.57;;;2.25;;
59442;SDS011;45247;47.466;19.004;2023-07-13T07:31:32;7.13;;;2.25;;
59442;SDS011;45247;47.466;19.004;2023-07-13T07:34:04;4.93;;;2.15;;
59442;SDS011;45247;47.466;19.004;2023-07-13T07:36:32;3.70;;;2.50;;
59442;SDS011;45247;47.466;19.004;2023-07-13T07:39:03;6.73;;;2.33;;
59442;SDS011;45247;47.466;19.004;2023-07-13T07:41:35;6.50;;;2.72;;
59442;SDS011;45247;47.466;19.004;2023-07-13T07:44:06;5.45;;;2.60;;
59442;SDS011;45247;47.466;19.004;2023-07-13T07:46:36;5.22;;;2.38;;
59442;SDS011;45247;47.466;19.004;2023-07-13T07:49:05;5.45;;;2.50;;
59442;SDS011;45247;47.466;19.004;2023-07-13T07:51:33;3.97;;;2.20;;
59442;SDS011;45247;47.466;19.004;2023-07-13T07:54:01;2.95;;;2.20;;
59442;SDS011;45247;47.466;19.004;2023-07-13T07:56:30;6.22;;;1.80;;
59442;SDS011;45247;47.466;19.004;2023-07-13T07:59:02;4.03;;;2.00;;
59442;SDS011;45247;47.466;19.004;2023-07-13T08:01:34;5.88;;;2.33;;
59442;SDS011;45247;47.466;19.004;2023-07-13T08:04:05;5.47;;;2.30;;
59442;SDS011;45247;47.466;19.004;2023-07-13T08:06:53;8.95;;;2.63;;
59442;SDS011;45247;47.466;19.004;2023-07-13T08:09:23;4.40;;;2.30;;
59442;SDS011;45247;47.466;19.004;2023-07-13T08:11:51;4.03;;;2.10;;
59442;SDS011;45247;47.466;19.004;2023-07-13T08:14:25;6.15;;;2.65;;
59442;SDS011;45247;47.466;19.004;2023-07-13T08:17:12;5.22;;;2.20;;
59442;SDS011;45247;47.466;19.004;2023-07-13T08:19:41;5.65;;;2.33;;
59442;SDS011;45247;47.466;19.004;2023-07-13T08:22:10;6.00;;;2.22;;
59442;SDS011;45247;47.466;19.004;2023-07-13T08:24:43;3.53;;;2.03;;
59442;SDS011;45247;47.466;19.004;2023-07-13T08:27:14;6.00;;;2.55;;
59442;SDS011;45247;47.466;19.004;2023-07-13T08:29:44;7.83;;;2.60;;
59442;SDS011;45247;47.466;19.004;2023-07-13T08:32:13;3.28;;;2.05;;
59442;SDS011;45247;47.466;19.004;2023-07-13T08:34:41;8.27;;;2.45;;
59442;SDS011;45247;47.466;19.004;2023-07-13T08:37:09;6.85;;;2.58;;
59442;SDS011;45247;47.466;19.004;2023-07-13T08:39:38;5.90;;;2.33;;
59442;SDS011;45247;47.466;19.004;2023-07-13T08:42:07;7.30;;;2.20;;
59442;SDS011;45247;47.466;19.004;2023-07-13T08:44:48;5.28;;;2.30;;
59442;SDS011;45247;47.466;19.004;2023-07-13T08:47:23;6.20;;;2.63;;
59442;SDS011;45247;47.466;19.004;2023-07-13T08:49:53;5.65;;;2.20;;
59442;SDS011;45247;47.466;19.004;2023-07-13T08:52:26;3.13;;;2.05;;
59442;SDS011;45247;47.466;19.004;2023-07-13T08:55:01;5.35;;;2.40;;
59442;SDS011;45247;47.466;19.004;2023-07-13T08:57:36;6.90;;;2.30;;
59442;SDS011;45247;47.466;19.004;2023-07-13T09:00:10;6.07;;;2.25;;
59442;SDS011;45247;47.466;19.004;2023-07-13T09:02:42;5.97;;;2.40;;
59442;SDS011;45247;47.466;19.004;2023-07-13T09:05:18;4.10;;;2.42;;
59442;SDS011;45247;47.466;19.004;2023-07-13T09:08:01;8.13;;;2.63;;
59442;SDS011;45247;47.466;19.004;2023-07-13T09:10:41;5.97;;;2.20;;
59442;SDS011;45247;47.466;19.004;2023-07-13T09:13:16;6.35;;;2.47;;
59442;SDS011;45247;47.466;19.004;2023-07-13T09:15:56;6.60;;;2.72;;
59442;SDS011;45247;47.466;19.004;2023-07-13T09:18:28;5.40;;;2.60;;
59442;SDS011;45247;47.466;19.004;2023-07-13T09:21:02;6.53;;;2.40;;
59442;SDS011;45247;47.466;19.004;2023-07-13T09:23:36;6.22;;;2.60;;
59442;SDS011;45247;47.466;19.004;2023-07-13T09:26:05;6.18;;;2.90;;
59442;SDS011;45247;47.466;19.004;2023-07-13T09:28:40;4.25;;;2.53;;
59442;SDS011;45247;47.466;19.004;2023-07-13T09:31:13;8.07;;;2.57;;
59442;SDS011;45247;47.466;19.004;2023-07-13T09:33:43;5.70;;;2.63;;
59442;SDS011;45247;47.466;19.004;2023-07-13T09:36:17;6.18;;;3.10;;
59442;SDS011;45247;47.466;19.004;2023-07-13T09:38:48;12.05;;;3.00;;
59442;SDS011;45247;47.466;19.004;2023-07-13T09:41:23;3.75;;;2.45;;
59442;SDS011;45247;47.466;19.004;2023-07-13T09:44:09;5.72;;;2.80;;
59442;SDS011;45247;47.466;19.004;2023-07-13T09:46:44;5.03;;;2.78;;
59442;SDS011;45247;47.466;19.004;2023-07-13T09:49:14;5.30;;;3.03;;
59442;SDS011;45247;47.466;19.004;2023-07-13T09:51:42;4.45;;;2.80;;
59442;SDS011;45247;47.466;19.004;2023-07-13T09:54:17;5.75;;;2.70;;
59442;SDS011;45247;47.466;19.004;2023-07-13T09:56:47;3.83;;;2.60;;
59442;SDS011;45247;47.466;19.004;2023-07-13T09:59:19;5.95;;;2.85;;
59442;SDS011;45247;47.466;19.004;2023-07-13T10:01:50;5.25;;;2.40;;
59442;SDS011;45247;47.466;19.004;2023-07-13T10:04:19;4.60;;;2.58;;
59442;SDS011;45247;47.466;19.004;2023-07-13T10:07:04;5.38;;;2.72;;
59442;SDS011;45247;47.466;19.004;2023-07-13T10:09:53;5.22;;;2.47;;
59442;SDS011;45247;47.466;19.004;2023-07-13T10:12:22;5.57;;;3.22;;
59442;SDS011;45247;47.466;19.004;2023-07-13T10:14:52;8.20;;;2.90;;
59442;SDS011;45247;47.466;19.004;2023-07-13T10:17:44;6.10;;;2.58;;
59442;SDS011;45247;47.466;19.004;2023-07-13T10:20:12;5.80;;;2.90;;
59442;SDS011;45247;47.466;19.004;2023-07-13T10:22:44;6.13;;;2.70;;
59442;SDS011;45247;47.466;19.004;2023-07-13T10:25:19;7.00;;;2.70;;
59442;SDS011;45247;47.466;19.004;2023-07-13T10:27:50;4.30;;;2.28;;
59442;SDS011;45247;47.466;19.004;2023-07-13T10:30:23;6.40;;;2.47;;
59442;SDS011;45247;47.466;19.004;2023-07-13T10:32:58;4.28;;;2.65;;
59442;SDS011;45247;47.466;19.004;2023-07-13T10:35:30;6.00;;;2.00;;
59442;SDS011;45247;47.466;19.004;2023-07-13T10:38:00;4.22;;;2.28;;
59442;SDS011;45247;47.466;19.004;2023-07-13T10:40:33;6.95;;;2.35;;
59442;SDS011;45247;47.466;19.004;2023-07-13T10:43:06;5.00;;;2.60;;
59442;SDS011;45247;47.466;19.004;2023-07-13T10:45:41;3.15;;;2.17;;
59442;SDS011;45247;47.466;19.004;2023-07-13T10:48:13;3.20;;;2.15;;
59442;SDS011;45247;47.466;19.004;2023-07-13T10:50:43;6.95;;;3.67;;
59442;SDS011;45247;47.466;19.004;2023-07-13T10:53:18;4.18;;;2.08;;
59442;SDS011;45247;47.466;19.004;2023-07-13T10:55:55;3.05;;;2.15;;
59442;SDS011;45247;47.466;19.004;2023-07-13T10:58:32;4.07;;;2.30;;
59442;SDS011;45247;47.466;19.004;2023-07-13T11:01:03;4.88;;;2.30;;
59442;SDS011;45247;47.466;19.004;2023-07-13T11:03:50;5.57;;;2.22;;
59442;SDS011;45247;47.466;19.004;2023-07-13T11:06:33;4.15;;;2.45;;
59442;SDS011;45247;47.466;19.004;2023-07-13T11:09:17;3.40;;;2.03;;
59442;SDS011;45247;47.466;19.004;2023-07-13T11:11:58;6.05;;;1.90;;
59442;SDS011;45247;47.466;19.004;2023-07-13T11:14:29;4.00;;;2.28;;
59442;SDS011;45247;47.466;19.004;2023-07-13T11:20:32;4.45;;;2.15;;
59442;SDS011;45247;47.466;19.004;2023-07-13T11:25:56;4.47;;;2.38;;
59442;SDS011;45247;47.466;19.004;2023-07-13T11:28:27;4.50;;;2.28;;
59442;SDS011;45247;47.466;19.004;2023-07-13T11:31:03;6.25;;;2.10;;
59442;SDS011;45247;47.466;19.004;2023-07-13T11:33:53;5.35;;;2.05;;
59442;SDS011;45247;47.466;19.004;2023-07-13T11:36:28;5.68;;;2.67;;
59442;SDS011;45247;47.466;19.004;2023-07-13T11:39:19;5.20;;;2.10;;
59442;SDS011;45247;47.466;19.004;2023-07-13T11:41:53;3.55;;;2.30;;
59442;SDS011;45247;47.466;19.004;2023-07-13T11:44:24;5.50;;;2.08;;
59442;SDS011;45247;47.466;19.004;2023-07-13T11:46:55;6.50;;;2.17;;
59442;SDS011;45247;47.466;19.004;2023-07-13T11:49:29;5.60;;;2.30;;
59442;SDS011;45247;47.466;19.004;2023-07-13T11:52:00;5.15;;;2.20;;
59442;SDS011;45247;47.466;19.004;2023-07-13T11:54:30;4.90;;;2.38;;
59442;SDS011;45247;47.466;19.004;2023-07-13T11:57:01;7.30;;;2.28;;
59442;SDS011;45247;47.466;19.004;2023-07-13T11:59:45;4.85;;;2.53;;
59442;SDS011;45247;47.466;19.004;2023-07-13T12:02:15;3.97;;;2.05;;
59442;SDS011;45247;47.466;19.004;2023-07-13T12:04:50;5.50;;;2.38;;
59442;SDS011;45247;47.466;19.004;2023-07-13T12:07:20;4.85;;;2.38;;
59442;SDS011;45247;47.466;19.004;2023-07-13T12:09:50;4.43;;;2.30;;
59442;SDS011;45247;47.466;19.004;2023-07-13T12:12:19;3.72;;;2.40;;
59442;SDS011;45247;47.466;19.004;2023-07-13T12:14:51;6.95;;;2.60;;
59442;SDS011;45247;47.466;19.004;2023-07-13T12:17:21;3.85;;;2.38;;
59442;SDS011;45247;47.466;19.004;2023-07-13T12:19:54;6.25;;;2.63;;
59442;SDS011;45247;47.466;19.004;2023-07-13T12:22:24;3.67;;;2.38;;
59442;SDS011;45247;47.466;19.004;2023-07-13T12:24:53;5.22;;;2.50;;
59442;SDS011;45247;47.466;19.004;2023-07-13T12:27:24;5.78;;;2.88;;
59442;SDS011;45247;47.466;19.004;2023-07-13T12:29:57;5.57;;;3.08;;
59442;SDS011;45247;47.466;19.004;2023-07-13T12:32:28;6.82;;;2.80;;
59442;SDS011;45247;47.466;19.004;2023-07-13T12:35:07;5.90;;;2.85;;
59442;SDS011;45247;47.466;19.004;2023-07-13T12:37:43;5.88;;;2.70;;
59442;SDS011;45247;47.466;19.004;2023-07-13T12:40:14;4.40;;;2.47;;
59442;SDS011;45247;47.466;19.004;2023-07-13T12:42:45;5.20;;;3.05;;
59442;SDS011;45247;47.466;19.004;2023-07-13T12:45:18;5.53;;;2.75;;
59442;SDS011;45247;47.466;19.004;2023-07-13T12:47:48;5.57;;;2.92;;
59442;SDS011;45247;47.466;19.004;2023-07-13T12:50:18;3.90;;;2.70;;
59442;SDS011;45247;47.466;19.004;2023-07-13T12:52:51;8.87;;;2.80;;
59442;SDS011;45247;47.466;19.004;2023-07-13T12:55:21;5.10;;;2.67;;
59442;SDS011;45247;47.466;19.004;2023-07-13T12:57:51;6.68;;;3.13;;
59442;SDS011;45247;47.466;19.004;2023-07-13T13:00:23;6.70;;;2.90;;
59442;SDS011;45247;47.466;19.004;2023-07-13T13:02:55;5.93;;;2.90;;
59442;SDS011;45247;47.466;19.004;2023-07-13T13:05:27;5.43;;;2.85;;
59442;SDS011;45247;47.466;19.004;2023-07-13T13:07:59;4.78;;;2.90;;
59442;SDS011;45247;47.466;19.004;2023-07-13T13:10:28;4.72;;;3.03;;
59442;SDS011;45247;47.466;19.004;2023-07-13T13:12:56;4.43;;;2.78;;
59442;SDS011;45247;47.466;19.004;2023-07-13T13:15:25;5.10;;;3.05;;
59442;SDS011;45247;47.466;19.004;2023-07-13T13:17:53;3.78;;;2.63;;
59442;SDS011;45247;47.466;19.004;2023-07-13T13:20:22;5.43;;;2.78;;
59442;SDS011;45247;47.466;19.004;2023-07-13T13:22:52;11.13;;;2.95;;
59442;SDS011;45247;47.466;19.004;2023-07-13T13:25:21;4.50;;;2.75;;
59442;SDS011;45247;47.466;19.004;2023-07-13T13:27:50;6.28;;;2.80;;
59442;SDS011;45247;47.466;19.004;2023-07-13T13:30:18;4.22;;;2.67;;
59442;SDS011;45247;47.466;19.004;2023-07-13T13:32:48;4.38;;;2.70;;
59442;SDS011;45247;47.466;19.004;2023-07-13T13:35:17;7.43;;;2.58;;
59442;SDS011;45247;47.466;19.004;2023-07-13T13:37:47;4.90;;;2.90;;
59442;SDS011;45247;47.466;19.004;2023-07-13T13:40:17;4.88;;;2.75;;
59442;SDS011;45247;47.466;19.004;2023-07-13T13:42:49;3.38;;;2.45;;
59442;SDS011;45247;47.466;19.004;2023-07-13T13:45:18;3.42;;;2.35;;
59442;SDS011;45247;47.466;19.004;2023-07-13T13:47:47;5.68;;;2.85;;
59442;SDS011;45247;47.466;19.004;2023-07-13T13:50:16;4.90;;;2.90;;
59442;SDS011;45247;47.466;19.004;2023-07-13T13:52:49;4.75;;;2.63;;
59442;SDS011;45247;47.466;19.004;2023-07-13T13:55:18;8.60;;;3.28;;
59442;SDS011;45247;47.466;19.004;2023-07-13T13:57:51;5.28;;;2.60;;
59442;SDS011;45247;47.466;19.004;2023-07-13T14:00:20;4.85;;;2.28;;
59442;SDS011;45247;47.466;19.004;2023-07-13T14:02:49;3.63;;;2.53;;
59442;SDS011;45247;47.466;19.004;2023-07-13T14:05:20;3.67;;;2.55;;
59442;SDS011;45247;47.466;19.004;2023-07-13T14:07:50;4.15;;;2.70;;
59442;SDS011;45247;47.466;19.004;2023-07-13T14:10:19;3.67;;;2.10;;
59442;SDS011;45247;47.466;19.004;2023-07-13T14:12:49;4.70;;;2.63;;
59442;SDS011;45247;47.466;19.004;2023-07-13T14:15:21;5.07;;;2.65;;
59442;SDS011;45247;47.466;19.004;2023-07-13T14:17:51;8.55;;;2.83;;
59442;SDS011;45247;47.466;19.004;2023-07-13T14:20:20;5.22;;;2.90;;
59442;SDS011;45247;47.466;19.004;2023-07-13T14:22:50;4.00;;;2.73;;
59442;SDS011;45247;47.466;19.004;2023-07-13T14:25:20;5.25;;;2.90;;
59442;SDS011;45247;47.466;19.004;2023-07-13T14:27:49;4.90;;;3.00;;
59442;SDS011;45247;47.466;19.004;2023-07-13T14:30:23;4.20;;;2.60;;
59442;SDS011;45247;47.466;19.004;2023-07-13T14:32:52;6.75;;;2.42;;
59442;SDS011;45247;47.466;19.004;2023-07-13T14:35:21;5.25;;;2.97;;
59442;SDS011;45247;47.466;19.004;2023-07-13T14:37:50;4.57;;;2.80;;
59442;SDS011;45247;47.466;19.004;2023-07-13T14:40:21;4.18;;;2.53;;
59442;SDS011;45247;47.466;19.004;2023-07-13T14:42:53;5.13;;;2.42;;
59442;SDS011;45247;47.466;19.004;2023-07-13T14:45:23;6.38;;;2.97;;
59442;SDS011;45247;47.466;19.004;2023-07-13T14:47:53;4.60;;;2.87;;
59442;SDS011;45247;47.466;19.004;2023-07-13T14:50:24;8.52;;;2.70;;
59442;SDS011;45247;47.466;19.004;2023-07-13T14:52:57;5.00;;;2.70;;
59442;SDS011;45247;47.466;19.004;2023-07-13T14:55:26;3.58;;;2.75;;
59442;SDS011;45247;47.466;19.004;2023-07-13T14:57:54;6.20;;;2.78;;
59442;SDS011;45247;47.466;19.004;2023-07-13T15:00:26;6.00;;;2.83;;
59442;SDS011;45247;47.466;19.004;2023-07-13T15:02:56;5.25;;;2.55;;
59442;SDS011;45247;47.466;19.004;2023-07-13T15:05:26;5.00;;;2.67;;
59442;SDS011;45247;47.466;19.004;2023-07-13T15:07:57;9.18;;;2.42;;
59442;SDS011;45247;47.466;19.004;2023-07-13T15:10:27;4.00;;;2.45;;
59442;SDS011;45247;47.466;19.004;2023-07-13T15:12:59;5.50;;;3.22;;
59442;SDS011;45247;47.466;19.004;2023-07-13T15:15:32;6.20;;;2.78;;
59442;SDS011;45247;47.466;19.004;2023-07-13T15:18:04;9.98;;;3.10;;
59442;SDS011;45247;47.466;19.004;2023-07-13T15:20:33;6.43;;;2.45;;
59442;SDS011;45247;47.466;19.004;2023-07-13T15:23:03;5.25;;;2.53;;
59442;SDS011;45247;47.466;19.004;2023-07-13T15:25:32;3.90;;;2.67;;
59442;SDS011;45247;47.466;19.004;2023-07-13T15:28:01;4.80;;;2.80;;
59442;SDS011;45247;47.466;19.004;2023-07-13T15:30:29;7.70;;;3.20;;
59442;SDS011;45247;47.466;19.004;2023-07-13T15:33:09;4.85;;;2.78;;
59442;SDS011;45247;47.466;19.004;2023-07-13T15:35:39;6.60;;;2.47;;
59442;SDS011;45247;47.466;19.004;2023-07-13T15:38:15;6.57;;;2.80;;
59442;SDS011;45247;47.466;19.004;2023-07-13T15:40:45;4.70;;;3.10;;
59442;SDS011;45247;47.466;19.004;2023-07-13T15:43:14;4.45;;;2.20;;
59442;SDS011;45247;47.466;19.004;2023-07-13T15:45:45;6.00;;;2.92;;
59442;SDS011;45247;47.466;19.004;2023-07-13T15:48:15;5.68;;;2.88;;
59442;SDS011;45247;47.466;19.004;2023-07-13T15:50:45;4.72;;;2.50;;
59442;SDS011;45247;47.466;19.004;2023-07-13T15:53:16;4.60;;;2.20;;
59442;SDS011;45247;47.466;19.004;2023-07-13T15:55:48;4.82;;;2.90;;
59442;SDS011;45247;47.466;19.004;2023-07-13T15:58:17;4.18;;;2.83;;
59442;SDS011;45247;47.466;19.004;2023-07-13T16:00:48;4.28;;;2.72;;
59442;SDS011;45247;47.466;19.004;2023-07-13T16:03:18;6.50;;;2.65;;
59442;SDS011;45247;47.466;19.004;2023-07-13T16:05:46;4.97;;;2.75;;
59442;SDS011;45247;47.466;19.004;2023-07-13T16:08:25;5.03;;;2.95;;
59442;SDS011;45247;47.466;19.004;2023-07-13T16:10:58;3.60;;;2.47;;
59442;SDS011;45247;47.466;19.004;2023-07-13T16:13:29;6.22;;;2.60;;
59442;SDS011;45247;47.466;19.004;2023-07-13T16:15:58;10.07;;;2.97;;
59442;SDS011;45247;47.466;19.004;2023-07-13T16:18:26;6.78;;;3.05;;
59442;SDS011;45247;47.466;19.004;2023-07-13T16:20:55;5.47;;;2.95;;
59442;SDS011;45247;47.466;19.004;2023-07-13T16:23:25;4.00;;;2.42;;
59442;SDS011;45247;47.466;19.004;2023-07-13T16:25:54;4.00;;;2.50;;
59442;SDS011;45247;47.466;19.004;2023-07-13T16:28:23;4.95;;;2.83;;
59442;SDS011;45247;47.466;19.004;2023-07-13T16:30:51;5.22;;;2.75;;
59442;SDS011;45247;47.466;19.004;2023-07-13T16:33:22;4.72;;;2.88;;
59442;SDS011;45247;47.466;19.004;2023-07-13T16:35:51;5.20;;;2.60;;
59442;SDS011;45247;47.466;19.004;2023-07-13T16:38:21;11.10;;;2.80;;
59442;SDS011;45247;47.466;19.004;2023-07-13T16:40:51;4.35;;;2.40;;
59442;SDS011;45247;47.466;19.004;2023-07-13T16:43:19;8.23;;;2.60;;
59442;SDS011;45247;47.466;19.004;2023-07-13T16:45:49;4.97;;;2.85;;
59442;SDS011;45247;47.466;19.004;2023-07-13T16:48:20;5.10;;;3.28;;
59442;SDS011;45247;47.466;19.004;2023-07-13T16:50:54;7.65;;;3.17;;
59442;SDS011;45247;47.466;19.004;2023-07-13T16:53:24;6.20;;;3.22;;
59442;SDS011;45247;47.466;19.004;2023-07-13T16:55:54;7.90;;;3.08;;
59442;SDS011;45247;47.466;19.004;2023-07-13T16:58:27;6.57;;;2.95;;
59442;SDS011;45247;47.466;19.004;2023-07-13T17:00:58;6.03;;;3.10;;
59442;SDS011;45247;47.466;19.004;2023-07-13T17:06:00;2.95;;;2.25;;
59442;SDS011;45247;47.466;19.004;2023-07-13T17:08:38;4.97;;;2.92;;
59442;SDS011;45247;47.466;19.004;2023-07-13T17:11:06;3.30;;;2.55;;
59442;SDS011;45247;47.466;19.004;2023-07-13T17:13:35;6.30;;;3.17;;
59442;SDS011;45247;47.466;19.004;2023-07-13T17:16:08;6.22;;;2.95;;
59442;SDS011;45247;47.466;19.004;2023-07-13T17:18:39;3.67;;;2.42;;
59442;SDS011;45247;47.466;19.004;2023-07-13T17:21:12;5.95;;;2.97;;
59442;SDS011;45247;47.466;19.004;2023-07-13T17:23:42;7.10;;;2.97;;
59442;SDS011;45247;47.466;19.004;2023-07-13T17:26:11;5.97;;;2.97;;
59442;SDS011;45247;47.466;19.004;2023-07-13T17:28:40;3.60;;;2.55;;
59442;SDS011;45247;47.466;19.004;2023-07-13T17:31:11;5.63;;;2.85;;
59442;SDS011;45247;47.466;19.004;2023-07-13T17:33:46;7.75;;;2.90;;
59442;SDS011;45247;47.466;19.004;2023-07-13T17:36:15;4.85;;;3.00;;
59442;SDS011;45247;47.466;19.004;2023-07-13T17:38:45;8.35;;;3.60;;
59442;SDS011;45247;47.466;19.004;2023-07-13T17:41:17;6.47;;;2.75;;
59442;SDS011;45247;47.466;19.004;2023-07-13T17:43:48;6.90;;;3.20;;
59442;SDS011;45247;47.466;19.004;2023-07-13T17:46:17;8.15;;;3.03;;
59442;SDS011;45247;47.466;19.004;2023-07-13T17:51:20;5.88;;;2.60;;
59442;SDS011;45247;47.466;19.004;2023-07-13T17:53:50;4.72;;;2.60;;
59442;SDS011;45247;47.466;19.004;2023-07-13T17:56:18;5.32;;;2.58;;
59442;SDS011;45247;47.466;19.004;2023-07-13T17:58:50;3.53;;;2.50;;
59442;SDS011;45247;47.466;19.004;2023-07-13T18:01:20;7.20;;;2.55;;
59442;SDS011;45247;47.466;19.004;2023-07-13T18:03:52;4.05;;;2.50;;
59442;SDS011;45247;47.466;19.004;2023-07-13T18:06:26;4.25;;;2.50;;
59442;SDS011;45247;47.466;19.004;2023-07-13T18:08:58;5.35;;;2.65;;
59442;SDS011;45247;47.466;19.004;2023-07-13T18:11:36;5.82;;;2.53;;
59442;SDS011;45247;47.466;19.004;2023-07-13T18:14:06;5.75;;;2.42;;
59442;SDS011;45247;47.466;19.004;2023-07-13T18:16:36;7.65;;;2.70;;
59442;SDS011;45247;47.466;19.004;2023-07-13T18:19:20;5.55;;;2.60;;
59442;SDS011;45247;47.466;19.004;2023-07-13T18:21:56;6.80;;;2.85;;
59442;SDS011;45247;47.466;19.004;2023-07-13T18:24:25;4.63;;;2.92;;
59442;SDS011;45247;47.466;19.004;2023-07-13T18:27:00;4.13;;;2.83;;
59442;SDS011;45247;47.466;19.004;2023-07-13T18:29:32;9.77;;;3.08;;
59442;SDS011;45247;47.466;19.004;2023-07-13T18:32:01;4.07;;;2.50;;
59442;SDS011;45247;47.466;19.004;2023-07-13T18:34:35;9.23;;;2.92;;
59442;SDS011;45247;47.466;19.004;2023-07-13T18:37:09;5.75;;;2.63;;
59442;SDS011;45247;47.466;19.004;2023-07-13T18:39:48;4.15;;;2.80;;
59442;SDS011;45247;47.466;19.004;2023-07-13T18:42:18;4.05;;;2.38;;
59442;SDS011;45247;47.466;19.004;2023-07-13T18:44:47;3.58;;;2.53;;
59442;SDS011;45247;47.466;19.004;2023-07-13T18:47:16;5.40;;;2.67;;
59442;SDS011;45247;47.466;19.004;2023-07-13T18:49:51;5.05;;;2.92;;
59442;SDS011;45247;47.466;19.004;2023-07-13T18:52:23;6.10;;;2.97;;
59442;SDS011;45247;47.466;19.004;2023-07-13T18:54:53;6.05;;;3.25;;
59442;SDS011;45247;47.466;19.004;2023-07-13T18:57:22;6.13;;;2.97;;
59442;SDS011;45247;47.466;19.004;2023-07-13T18:59:52;4.70;;;3.10;;
59442;SDS011;45247;47.466;19.004;2023-07-13T19:02:21;5.80;;;3.03;;
59442;SDS011;45247;47.466;19.004;2023-07-13T19:04:50;4.88;;;2.72;;
59442;SDS011;45247;47.466;19.004;2023-07-13T19:07:20;3.65;;;2.67;;
59442;SDS011;45247;47.466;19.004;2023-07-13T19:09:49;4.65;;;2.38;;
59442;SDS011;45247;47.466;19.004;2023-07-13T19:12:20;5.72;;;2.45;;
59442;SDS011;45247;47.466;19.004;2023-07-13T19:14:51;3.90;;;2.58;;
59442;SDS011;45247;47.466;19.004;2023-07-13T19:17:21;3.72;;;2.40;;
59442;SDS011;45247;47.466;19.004;2023-07-13T19:19:52;3.15;;;2.10;;
59442;SDS011;45247;47.466;19.004;2023-07-13T19:22:23;4.18;;;2.35;;
59442;SDS011;45247;47.466;19.004;2023-07-13T19:24:54;4.23;;;2.40;;
59442;SDS011;45247;47.466;19.004;2023-07-13T19:27:24;3.83;;;2.60;;
59442;SDS011;45247;47.466;19.004;2023-07-13T19:29:54;5.13;;;2.30;;
59442;SDS011;45247;47.466;19.004;2023-07-13T19:32:32;3.65;;;2.20;;
59442;SDS011;45247;47.466;19.004;2023-07-13T19:35:03;4.05;;;2.30;;
59442;SDS011;45247;47.466;19.004;2023-07-13T19:37:33;4.10;;;2.13;;
59442;SDS011;45247;47.466;19.004;2023-07-13T19:40:10;6.03;;;2.72;;
59442;SDS011;45247;47.466;19.004;2023-07-13T19:42:47;5.95;;;2.28;;
59442;SDS011;45247;47.466;19.004;2023-07-13T19:45:17;3.80;;;2.47;;
59442;SDS011;45247;47.466;19.004;2023-07-13T19:47:47;5.50;;;2.45;;
59442;SDS011;45247;47.466;19.004;2023-07-13T19:50:27;3.25;;;2.30;;
59442;SDS011;45247;47.466;19.004;2023-07-13T19:52:57;5.13;;;2.88;;
59442;SDS011;45247;47.466;19.004;2023-07-13T19:55:27;6.13;;;3.00;;
59442;SDS011;45247;47.466;19.004;2023-07-13T19:57:56;4.63;;;2.42;;
59442;SDS011;45247;47.466;19.004;2023-07-13T20:00:26;4.30;;;2.47;;
59442;SDS011;45247;47.466;19.004;2023-07-13T20:05:27;4.85;;;2.88;;
59442;SDS011;45247;47.466;19.004;2023-07-13T20:07:58;4.82;;;2.90;;
59442;SDS011;45247;47.466;19.004;2023-07-13T20:10:29;7.18;;;3.45;;
59442;SDS011;45247;47.466;19.004;2023-07-13T20:15:30;6.43;;;3.08;;
59442;SDS011;45247;47.466;19.004;2023-07-13T20:18:00;5.35;;;2.97;;
59442;SDS011;45247;47.466;19.004;2023-07-13T20:20:33;6.78;;;3.42;;
59442;SDS011;45247;47.466;19.004;2023-07-13T20:23:04;6.60;;;3.30;;